sensor_id;sensor_type;location;lat;lon;timestamp;pressure;altitude;pressure_sealevel;temperature;humidity
17950;BME280;9100;48.700;9.316;2022-12-10T00:00:36;96481;;;2.75;100
17950;BME280;9100;48.700;9.316;2022-12-10T00:00:44;96482.6;;;2.76;100
17950;BME280;9100;48.700;9.316;2022-12-10T00:01:35;96485.29999999999;;;2.75;100
17950;BME280;9100;48.700;9.316;2022-12-10T00:02:36;96484.2;;;2.77;100
17950;BME280;9100;48.700;9.316;2022-12-10T00:03:36;96481.8;;;2.76;100
17950;BME280;9100;48.700;9.316;2022-12-10T00:04:36;96481;;;2.75;100
17950;BME280;9100;48.700;9.316;2022-12-10T00:05:35;96479.5;;;2.74;100
17950;BME280;9100;48.700;9.316;2022-12-10T00:05:44;96471.90000000001;;;2.74;100
17950;BME280;9100;48.700;9.316;2022-12-10T00:06:36;96469.5;;;2.73;100
17950;BME280;9100;48.700;9.316;2022-12-10T00:07:36;96468.1;;;2.7;100
17950;BME280;9100;48.700;9.316;2022-12-10T00:08:35;96463;;;2.7;100
17950;BME280;9100;48.700;9.316;2022-12-10T00:09:35;96460.7;;;2.69;100
17950;BME280;9100;48.700;9.316;2022-12-10T00:10:38;96464.3;;;2.66;100
17950;BME280;9100;48.700;9.316;2022-12-10T00:10:44;96464.3;;;2.66;100
17950;BME280;9100;48.700;9.316;2022-12-10T00:11:36;96459.3;;;2.66;100
17950;BME280;9100;48.700;9.316;2022-12-10T00:12:36;96461.8;;;2.66;100
17950;BME280;9100;48.700;9.316;2022-12-10T00:13:36;96465.3;;;2.65;100
17950;BME280;9100;48.700;9.316;2022-12-10T00:14:35;96465.3;;;2.65;100
17950;BME280;9100;48.700;9.316;2022-12-10T00:15:35;96472;;;2.65;100
17950;BME280;9100;48.700;9.316;2022-12-10T00:15:44;96466.8;;;2.66;100
17950;BME280;9100;48.700;9.316;2022-12-10T00:16:35;96465.3;;;2.65;100
17950;BME280;9100;48.700;9.316;2022-12-10T00:17:35;96471.90000000001;;;2.66;100
17950;BME280;9100;48.700;9.316;2022-12-10T00:18:36;96467.8;;;2.65;100
17950;BME280;9100;48.700;9.316;2022-12-10T00:19:35;96472.2;;;2.63;100
17950;BME280;9100;48.700;9.316;2022-12-10T00:20:36;96464.8;;;2.62;100
17950;BME280;9100;48.700;9.316;2022-12-10T00:20:44;96465.59999999999;;;2.62;100
17950;BME280;9100;48.700;9.316;2022-12-10T00:21:35;96465.7;;;2.61;100
17950;BME280;9100;48.700;9.316;2022-12-10T00:22:35;96469.8;;;2.62;100
17950;BME280;9100;48.700;9.316;2022-12-10T00:23:35;96464.20000000001;;;2.6;100
17950;BME280;9100;48.700;9.316;2022-12-10T00:24:36;96461.6;;;2.6;100
17950;BME280;9100;48.700;9.316;2022-12-10T00:25:35;96456.6;;;2.6;100
17950;BME280;9100;48.700;9.316;2022-12-10T00:25:44;96457.4;;;2.6;100
17950;BME280;9100;48.700;9.316;2022-12-10T00:26:36;96453.3;;;2.59;100
17950;BME280;9100;48.700;9.316;2022-12-10T00:27:35;96454.1;;;2.6;100
17950;BME280;9100;48.700;9.316;2022-12-10T00:28:35;96452.3;;;2.6;100
17950;BME280;9100;48.700;9.316;2022-12-10T00:29:35;96447.29999999999;;;2.6;100
17950;BME280;9100;48.700;9.316;2022-12-10T00:30:35;96451.5;;;2.6;100
17950;BME280;9100;48.700;9.316;2022-12-10T00:30:45;96455.8;;;2.59;100
17950;BME280;9100;48.700;9.316;2022-12-10T00:31:36;96454.1;;;2.6;100
17950;BME280;9100;48.700;9.316;2022-12-10T00:32:35;96448.8;;;2.61;100
17950;BME280;9100;48.700;9.316;2022-12-10T00:33:35;96459.90000000001;;;2.6;100
17950;BME280;9100;48.700;9.316;2022-12-10T00:34:35;96447.29999999999;;;2.6;100
17950;BME280;9100;48.700;9.316;2022-12-10T00:35:36;96458.90000000001;;;2.61;100
17950;BME280;9100;48.700;9.316;2022-12-10T00:35:44;96454.1;;;2.6;100
17950;BME280;9100;48.700;9.316;2022-12-10T00:36:37;96449.8;;;2.6;100
17950;BME280;9100;48.700;9.316;2022-12-10T00:37:35;96450.8;;;2.59;100
17950;BME280;9100;48.700;9.316;2022-12-10T00:38:36;96455.8;;;2.59;100
17950;BME280;9100;48.700;9.316;2022-12-10T00:39:35;96455.8;;;2.59;100
17950;BME280;9100;48.700;9.316;2022-12-10T00:40:35;96455.8;;;2.59;100
17950;BME280;9100;48.700;9.316;2022-12-10T00:40:44;96454.2;;;2.58;100
17950;BME280;9100;48.700;9.316;2022-12-10T00:41:35;96459.90000000001;;;2.6;100
17950;BME280;9100;48.700;9.316;2022-12-10T00:42:35;96460.79999999999;;;2.59;100
17950;BME280;9100;48.700;9.316;2022-12-10T00:43:35;96464.3;;;2.58;100
17950;BME280;9100;48.700;9.316;2022-12-10T00:44:36;96463.5;;;2.58;100
17950;BME280;9100;48.700;9.316;2022-12-10T00:45:35;96465.9;;;2.59;100
17950;BME280;9100;48.700;9.316;2022-12-10T00:45:45;96465.20000000001;;;2.57;100
17950;BME280;9100;48.700;9.316;2022-12-10T00:46:36;96467.5;;;2.6;100
17950;BME280;9100;48.700;9.316;2022-12-10T00:47:36;96466.7;;;2.6;100
17950;BME280;9100;48.700;9.316;2022-12-10T00:48:36;96469;;;2.61;100
17950;BME280;9100;48.700;9.316;2022-12-10T00:49:35;96467.2;;;2.63;100
17950;BME280;9100;48.700;9.316;2022-12-10T00:50:35;96471.1;;;2.66;100
17950;BME280;9100;48.700;9.316;2022-12-10T00:50:53;96469.5;;;2.65;100
17950;BME280;9100;48.700;9.316;2022-12-10T00:51:35;96470.1;;;2.67;100
17950;BME280;9100;48.700;9.316;2022-12-10T00:52:36;96466.8;;;2.66;100
17950;BME280;9100;48.700;9.316;2022-12-10T00:53:36;96466.8;;;2.66;100
17950;BME280;9100;48.700;9.316;2022-12-10T00:54:36;96466.8;;;2.66;100
17950;BME280;9100;48.700;9.316;2022-12-10T00:55:35;96476.09999999999;;;2.66;100
17950;BME280;9100;48.700;9.316;2022-12-10T00:55:44;96471.1;;;2.66;100
17950;BME280;9100;48.700;9.316;2022-12-10T00:56:35;96460.79999999999;;;2.67;100
17950;BME280;9100;48.700;9.316;2022-12-10T00:57:36;96474.3;;;2.68;100
17950;BME280;9100;48.700;9.316;2022-12-10T00:58:36;96475;;;2.68;100
17950;BME280;9100;48.700;9.316;2022-12-10T00:59:36;96422.5;;;2.39;100
17950;BME280;9100;48.700;9.316;2022-12-10T01:00:36;96469.8;;;2.7;100
17950;BME280;9100;48.700;9.316;2022-12-10T01:00:45;96469.8;;;2.7;100
17950;BME280;9100;48.700;9.316;2022-12-10T01:01:36;96467.2;;;2.71;100
17950;BME280;9100;48.700;9.316;2022-12-10T01:02:36;96428.2;;;2.41;100
17950;BME280;9100;48.700;9.316;2022-12-10T01:03:36;96463;;;2.7;100
17950;BME280;9100;48.700;9.316;2022-12-10T01:04:36;96462.2;;;2.7;100
17950;BME280;9100;48.700;9.316;2022-12-10T01:05:35;96476.5;;;2.71;100
17950;BME280;9100;48.700;9.316;2022-12-10T01:05:45;96473.1;;;2.7;100
17950;BME280;9100;48.700;9.316;2022-12-10T01:06:36;96469.7;;;2.71;100
17950;BME280;9100;48.700;9.316;2022-12-10T01:07:36;96478.2;;;2.7;100
17950;BME280;9100;48.700;9.316;2022-12-10T01:08:35;96475;;;2.68;100
17950;BME280;9100;48.700;9.316;2022-12-10T01:09:35;96483.6;;;2.67;100
17950;BME280;9100;48.700;9.316;2022-12-10T01:10:35;96482.9;;;2.65;100
17950;BME280;9100;48.700;9.316;2022-12-10T01:10:45;96484.5;;;2.66;100
17950;BME280;9100;48.700;9.316;2022-12-10T01:11:36;96485.1;;;2.68;100
17950;BME280;9100;48.700;9.316;2022-12-10T01:12:35;96490.20000000001;;;2.68;100
17950;BME280;9100;48.700;9.316;2022-12-10T01:13:35;96493.3;;;2.7;100
17950;BME280;9100;48.700;9.316;2022-12-10T01:14:35;96488.3;;;2.7;100
17950;BME280;9100;48.700;9.316;2022-12-10T01:15:36;96494;;;2.72;100
17950;BME280;9100;48.700;9.316;2022-12-10T01:15:45;96488;;;2.73;100
17950;BME280;9100;48.700;9.316;2022-12-10T01:16:36;96492.9;;;2.75;100
17950;BME280;9100;48.700;9.316;2022-12-10T01:17:35;96492.7;;;2.76;100
17950;BME280;9100;48.700;9.316;2022-12-10T01:18:36;96493.5;;;2.77;100
17950;BME280;9100;48.700;9.316;2022-12-10T01:19:35;96497.6;;;2.78;100
17950;BME280;9100;48.700;9.316;2022-12-10T01:20:35;96497.7;;;2.76;100
17950;BME280;9100;48.700;9.316;2022-12-10T01:20:44;96498.5;;;2.77;100
17950;BME280;9100;48.700;9.316;2022-12-10T01:21:36;96504.4;;;2.77;100
17950;BME280;9100;48.700;9.316;2022-12-10T01:22:35;96499.3;;;2.77;100
17950;BME280;9100;48.700;9.316;2022-12-10T01:23:36;96501.8;;;2.77;100
17950;BME280;9100;48.700;9.316;2022-12-10T01:24:35;96512.90000000001;;;2.76;100
17950;BME280;9100;48.700;9.316;2022-12-10T01:25:35;96498.5;;;2.77;100
17950;BME280;9100;48.700;9.316;2022-12-10T01:25:45;96503.8;;;2.75;100
17950;BME280;9100;48.700;9.316;2022-12-10T01:26:35;96503.4;;;2.78;100
17950;BME280;9100;48.700;9.316;2022-12-10T01:27:36;96460.5;;;2.54;100
17950;BME280;9100;48.700;9.316;2022-12-10T01:28:37;96501.4;;;2.82;100
17950;BME280;9100;48.700;9.316;2022-12-10T01:29:35;96503.7;;;2.83;100
17950;BME280;9100;48.700;9.316;2022-12-10T01:30:36;96513.8;;;2.83;100
17950;BME280;9100;48.700;9.316;2022-12-10T01:30:45;96503.7;;;2.83;100
17950;BME280;9100;48.700;9.316;2022-12-10T01:31:36;96511.2;;;2.85;100
17950;BME280;9100;48.700;9.316;2022-12-10T01:32:36;96512.09999999999;;;2.84;100
17950;BME280;9100;48.700;9.316;2022-12-10T01:33:36;96513.5;;;2.86;100
17950;BME280;9100;48.700;9.316;2022-12-10T01:34:35;96516.7;;;2.88;100
17950;BME280;9100;48.700;9.316;2022-12-10T01:35:36;96520.9;;;2.88;100
17950;BME280;9100;48.700;9.316;2022-12-10T01:35:44;96521.7;;;2.88;100
17950;BME280;9100;48.700;9.316;2022-12-10T01:36:36;96515.7;;;2.89;100
17950;BME280;9100;48.700;9.316;2022-12-10T01:37:35;96517.1;;;2.92;100
17950;BME280;9100;48.700;9.316;2022-12-10T01:38:36;96527.3;;;2.92;100
17950;BME280;9100;48.700;9.316;2022-12-10T01:39:35;96520.3;;;2.94;100
17950;BME280;9100;48.700;9.316;2022-12-10T01:40:36;96523.6;;;2.94;100
17950;BME280;9100;48.700;9.316;2022-12-10T01:40:44;96525.2;;;2.96;100
17950;BME280;9100;48.700;9.316;2022-12-10T01:41:37;96530.9;;;2.98;100
17950;BME280;9100;48.700;9.316;2022-12-10T01:42:35;96530.7;;;2.99;100
17950;BME280;9100;48.700;9.316;2022-12-10T01:43:53;96527.3;;;3;100
17950;BME280;9100;48.700;9.316;2022-12-10T01:45:09;96528.8;;;3.01;100
17950;BME280;9100;48.700;9.316;2022-12-10T01:45:35;96544;;;3.01;100
17950;BME280;9100;48.700;9.316;2022-12-10T01:45:45;96535.6;;;3.01;100
17950;BME280;9100;48.700;9.316;2022-12-10T01:46:36;96537.2;;;3.02;100
17950;BME280;9100;48.700;9.316;2022-12-10T01:47:36;96538.09999999999;;;3.01;100
17950;BME280;9100;48.700;9.316;2022-12-10T01:48:35;96535.6;;;3.01;100
17950;BME280;9100;48.700;9.316;2022-12-10T01:49:36;96538.9;;;3.01;100
17950;BME280;9100;48.700;9.316;2022-12-10T01:50:35;96544.1;;;3;100
17950;BME280;9100;48.700;9.316;2022-12-10T01:50:44;96542.5;;;2.99;100
17950;BME280;9100;48.700;9.316;2022-12-10T01:51:36;96542.5;;;2.99;100
17950;BME280;9100;48.700;9.316;2022-12-10T01:52:36;96540.7;;;3.01;100
17950;BME280;9100;48.700;9.316;2022-12-10T01:53:36;96537.2;;;3.02;100
17950;BME280;9100;48.700;9.316;2022-12-10T01:54:36;96539.70000000001;;;3.02;100
17950;BME280;9100;48.700;9.316;2022-12-10T01:55:38;96494.9;;;2.71;100
17950;BME280;9100;48.700;9.316;2022-12-10T01:55:46;96540.7;;;3.01;100
17950;BME280;9100;48.700;9.316;2022-12-10T01:56:36;96542.2;;;3.02;100
17950;BME280;9100;48.700;9.316;2022-12-10T01:57:36;96536.40000000001;;;3.01;100
17950;BME280;9100;48.700;9.316;2022-12-10T01:58:35;96541.3;;;3.03;100
17950;BME280;9100;48.700;9.316;2022-12-10T01:59:36;96537.2;;;3.02;100
17950;BME280;9100;48.700;9.316;2022-12-10T02:00:37;96532.3;;;3;100
17950;BME280;9100;48.700;9.316;2022-12-10T02:00:53;96536.6;;;3;100
17950;BME280;9100;48.700;9.316;2022-12-10T02:01:37;96534;;;3;100
17950;BME280;9100;48.700;9.316;2022-12-10T02:02:38;96537.5;;;2.99;100
17950;BME280;9100;48.700;9.316;2022-12-10T02:03:39;96532.6;;;2.97;100
17950;BME280;9100;48.700;9.316;2022-12-10T02:04:37;96530.9;;;2.98;100
17950;BME280;9100;48.700;9.316;2022-12-10T02:05:36;96531;;;2.96;100
17950;BME280;9100;48.700;9.316;2022-12-10T02:05:47;96527.70000000001;;;2.96;100
17950;BME280;9100;48.700;9.316;2022-12-10T02:06:40;96526;;;2.96;100
17950;BME280;9100;48.700;9.316;2022-12-10T02:07:39;96531.7;;;2.98;100
17950;BME280;9100;48.700;9.316;2022-12-10T02:08:37;96533.4;;;2.98;100
17950;BME280;9100;48.700;9.316;2022-12-10T02:09:37;96534.40000000001;;;2.97;100
17950;BME280;9100;48.700;9.316;2022-12-10T02:10:41;96530.2;;;2.96;100
17950;BME280;9100;48.700;9.316;2022-12-10T02:10:49;96537.8;;;2.96;100
17950;BME280;9100;48.700;9.316;2022-12-10T02:11:37;96532.8;;;2.96;100
17950;BME280;9100;48.700;9.316;2022-12-10T02:12:37;96537.8;;;2.96;100
17950;BME280;9100;48.700;9.316;2022-12-10T02:13:36;96536.90000000001;;;2.97;100
17950;BME280;9100;48.700;9.316;2022-12-10T02:14:38;96534.40000000001;;;2.97;100
17950;BME280;9100;48.700;9.316;2022-12-10T02:15:36;96534.40000000001;;;2.97;100
17950;BME280;9100;48.700;9.316;2022-12-10T02:15:46;96539.4;;;2.97;100
17950;BME280;9100;48.700;9.316;2022-12-10T02:16:36;96530.1;;;2.97;100
17950;BME280;9100;48.700;9.316;2022-12-10T02:17:36;96535.90000000001;;;2.98;100
17950;BME280;9100;48.700;9.316;2022-12-10T02:18:37;96535.90000000001;;;2.98;100
17950;BME280;9100;48.700;9.316;2022-12-10T02:19:42;96541;;;2.98;100
17950;BME280;9100;48.700;9.316;2022-12-10T02:20:36;96536.90000000001;;;2.97;100
17950;BME280;9100;48.700;9.316;2022-12-10T02:20:45;96532.8;;;2.96;100
17950;BME280;9100;48.700;9.316;2022-12-10T02:21:37;96541.9;;;2.97;100
17950;BME280;9100;48.700;9.316;2022-12-10T02:22:37;96537.5;;;2.99;100
17950;BME280;9100;48.700;9.316;2022-12-10T02:23:36;96539.09999999999;;;3;100
17950;BME280;9100;48.700;9.316;2022-12-10T02:24:36;96537.5;;;2.99;100
17950;BME280;9100;48.700;9.316;2022-12-10T02:25:39;96532.6;;;2.97;100
17950;BME280;9100;48.700;9.316;2022-12-10T02:25:46;96472.79999999999;;;2.57;100
17950;BME280;9100;48.700;9.316;2022-12-10T02:26:37;96531.7;;;2.98;100
17950;BME280;9100;48.700;9.316;2022-12-10T02:27:37;96530.2;;;2.96;100
17950;BME280;9100;48.700;9.316;2022-12-10T02:28:37;96530.1;;;2.97;100
17950;BME280;9100;48.700;9.316;2022-12-10T02:29:36;96531.7;;;2.98;100
17950;BME280;9100;48.700;9.316;2022-12-10T02:30:35;96529.9;;;2.99;100
17950;BME280;9100;48.700;9.316;2022-12-10T02:30:44;96532.4;;;2.99;100
17950;BME280;9100;48.700;9.316;2022-12-10T02:31:35;96528;;;3.01;100
17950;BME280;9100;48.700;9.316;2022-12-10T02:32:36;96524.5;;;3.02;100
17950;BME280;9100;48.700;9.316;2022-12-10T02:33:37;96520.5;;;3.01;100
17950;BME280;9100;48.700;9.316;2022-12-10T02:34:37;96518.9;;;3;100
17950;BME280;9100;48.700;9.316;2022-12-10T02:35:35;96463.7;;;2.64;100
17950;BME280;9100;48.700;9.316;2022-12-10T02:35:45;96529.1;;;2.98;100
17950;BME280;9100;48.700;9.316;2022-12-10T02:36:37;96518.3;;;2.98;100
17950;BME280;9100;48.700;9.316;2022-12-10T02:37:37;96523.5;;;2.96;100
17950;BME280;9100;48.700;9.316;2022-12-10T02:38:36;96524.2;;;2.97;100
17950;BME280;9100;48.700;9.316;2022-12-10T02:39:36;96517.6;;;2.96;100
17950;BME280;9100;48.700;9.316;2022-12-10T02:40:35;96519.5;;;2.93;100
17950;BME280;9100;48.700;9.316;2022-12-10T02:40:46;96518.6;;;2.94;100
17950;BME280;9100;48.700;9.316;2022-12-10T02:41:37;96520.3;;;2.94;100
17950;BME280;9100;48.700;9.316;2022-12-10T02:42:37;96511.2;;;2.93;100
17950;BME280;9100;48.700;9.316;2022-12-10T02:43:35;96514.5;;;2.93;100
17950;BME280;9100;48.700;9.316;2022-12-10T02:44:36;96510.2;;;2.94;100
17950;BME280;9100;48.700;9.316;2022-12-10T02:45:36;96514.5;;;2.93;100
17950;BME280;9100;48.700;9.316;2022-12-10T02:45:45;96508.6;;;2.93;100
17950;BME280;9100;48.700;9.316;2022-12-10T02:46:36;96509.6;;;2.92;100
17950;BME280;9100;48.700;9.316;2022-12-10T02:47:36;96513.8;;;2.91;100
17950;BME280;9100;48.700;9.316;2022-12-10T02:48:35;96506.3;;;2.91;100
17950;BME280;9100;48.700;9.316;2022-12-10T02:49:35;96512.09999999999;;;2.92;100
17950;BME280;9100;48.700;9.316;2022-12-10T02:50:35;96514.59999999999;;;2.92;100
17950;BME280;9100;48.700;9.316;2022-12-10T02:50:45;96511.3;;;2.91;100
17950;BME280;9100;48.700;9.316;2022-12-10T02:51:35;96507.8;;;2.92;100
17950;BME280;9100;48.700;9.316;2022-12-10T02:52:36;96508.6;;;2.93;100
17950;BME280;9100;48.700;9.316;2022-12-10T02:53:40;96509.6;;;2.92;100
17950;BME280;9100;48.700;9.316;2022-12-10T02:54:38;96514;;;2.9;100
17950;BME280;9100;48.700;9.316;2022-12-10T02:55:40;96504.7;;;2.9;100
17950;BME280;9100;48.700;9.316;2022-12-10T02:55:48;96503.9;;;2.9;100
17950;BME280;9100;48.700;9.316;2022-12-10T02:56:36;96513;;;2.91;100
17950;BME280;9100;48.700;9.316;2022-12-10T02:57:36;96493.8;;;2.9;100
17950;BME280;9100;48.700;9.316;2022-12-10T02:58:37;96490.5;;;2.89;100
17950;BME280;9100;48.700;9.316;2022-12-10T02:59:37;96491.4;;;2.88;100
17950;BME280;9100;48.700;9.316;2022-12-10T03:00:37;96499.90000000001;;;2.87;100
17950;BME280;9100;48.700;9.316;2022-12-10T03:00:46;96497.6;;;2.86;100
17950;BME280;9100;48.700;9.316;2022-12-10T03:01:38;96500.7;;;2.88;100
17950;BME280;9100;48.700;9.316;2022-12-10T03:02:39;96507.4;;;2.89;100
17950;BME280;9100;48.700;9.316;2022-12-10T03:03:37;96504.8;;;2.89;100
17950;BME280;9100;48.700;9.316;2022-12-10T03:04:37;96503.4;;;2.86;100
17950;BME280;9100;48.700;9.316;2022-12-10T03:05:37;96498.40000000001;;;2.86;100
17950;BME280;9100;48.700;9.316;2022-12-10T03:05:46;96503.4;;;2.86;100
17950;BME280;9100;48.700;9.316;2022-12-10T03:06:37;96505.3;;;2.84;100
17950;BME280;9100;48.700;9.316;2022-12-10T03:07:37;96501.8;;;2.85;100
17950;BME280;9100;48.700;9.316;2022-12-10T03:08:38;96502.8;;;2.84;100
17950;BME280;9100;48.700;9.316;2022-12-10T03:09:37;96502.9;;;2.83;100
17950;BME280;9100;48.700;9.316;2022-12-10T03:10:37;96502.20000000001;;;2.82;100
17950;BME280;9100;48.700;9.316;2022-12-10T03:10:47;96503.7;;;2.83;100
17950;BME280;9100;48.700;9.316;2022-12-10T03:11:35;96458;;;2.54;100
17950;BME280;9100;48.700;9.316;2022-12-10T03:12:36;96507.8;;;2.84;100
17950;BME280;9100;48.700;9.316;2022-12-10T03:13:36;96500.3;;;2.84;100
17950;BME280;9100;48.700;9.316;2022-12-10T03:14:36;96500.3;;;2.84;100
17950;BME280;9100;48.700;9.316;2022-12-10T03:15:37;96502;;;2.84;100
17950;BME280;9100;48.700;9.316;2022-12-10T03:15:44;96501.2;;;2.83;100
17950;BME280;9100;48.700;9.316;2022-12-10T03:16:37;96498.5;;;2.85;100
17950;BME280;9100;48.700;9.316;2022-12-10T03:17:36;96490.20000000001;;;2.84;100
17950;BME280;9100;48.700;9.316;2022-12-10T03:18:35;96490.20000000001;;;2.84;100
17950;BME280;9100;48.700;9.316;2022-12-10T03:19:37;96483.5;;;2.83;100
17950;BME280;9100;48.700;9.316;2022-12-10T03:20:37;96482;;;2.82;100
17950;BME280;9100;48.700;9.316;2022-12-10T03:20:45;96487;;;2.82;100
17950;BME280;9100;48.700;9.316;2022-12-10T03:21:36;96486.1;;;2.83;100
17950;BME280;9100;48.700;9.316;2022-12-10T03:22:36;96494.8;;;2.81;100
17950;BME280;9100;48.700;9.316;2022-12-10T03:23:36;96485.79999999999;;;2.78;100
17950;BME280;9100;48.700;9.316;2022-12-10T03:24:36;96493.3;;;2.78;100
17950;BME280;9100;48.700;9.316;2022-12-10T03:25:35;96489.20000000001;;;2.77;100
17950;BME280;9100;48.700;9.316;2022-12-10T03:25:45;96489.20000000001;;;2.77;100
17950;BME280;9100;48.700;9.316;2022-12-10T03:26:36;96492.7;;;2.76;100
17950;BME280;9100;48.700;9.316;2022-12-10T03:27:36;96502;;;2.76;100
17950;BME280;9100;48.700;9.316;2022-12-10T03:28:37;96502.8;;;2.76;100
17950;BME280;9100;48.700;9.316;2022-12-10T03:29:36;96498.5;;;2.77;100
17950;BME280;9100;48.700;9.316;2022-12-10T03:30:36;96501.09999999999;;;2.77;100
17950;BME280;9100;48.700;9.316;2022-12-10T03:30:44;96500.09999999999;;;2.78;100
17950;BME280;9100;48.700;9.316;2022-12-10T03:31:36;96496.8;;;2.77;100
17950;BME280;9100;48.700;9.316;2022-12-10T03:32:36;96497.6;;;2.78;100
17950;BME280;9100;48.700;9.316;2022-12-10T03:33:35;96490.20000000001;;;2.76;100
17950;BME280;9100;48.700;9.316;2022-12-10T03:34:35;96484.2;;;2.77;100
17950;BME280;9100;48.700;9.316;2022-12-10T03:35:35;96476.9;;;2.74;100
17950;BME280;9100;48.700;9.316;2022-12-10T03:35:45;96451.09999999999;;;2.56;100
17950;BME280;9100;48.700;9.316;2022-12-10T03:36:35;96483.6;;;2.75;100
17950;BME280;9100;48.700;9.316;2022-12-10T03:37:35;96480.4;;;2.73;100
17950;BME280;9100;48.700;9.316;2022-12-10T03:38:35;96475.5;;;2.72;100
17950;BME280;9100;48.700;9.316;2022-12-10T03:39:36;96479.1;;;2.69;100
17950;BME280;9100;48.700;9.316;2022-12-10T03:40:35;96476.59999999999;;;2.69;100
17950;BME280;9100;48.700;9.316;2022-12-10T03:40:45;96480.9;;;2.69;100
17950;BME280;9100;48.700;9.316;2022-12-10T03:41:35;96481.7;;;2.69;100
17950;BME280;9100;48.700;9.316;2022-12-10T03:42:36;96479.3;;;2.68;100
17950;BME280;9100;48.700;9.316;2022-12-10T03:43:35;96486.1;;;2.67;100
17950;BME280;9100;48.700;9.316;2022-12-10T03:44:36;96470.9;;;2.67;100
17950;BME280;9100;48.700;9.316;2022-12-10T03:45:35;96411.2;;;2.27;100
17950;BME280;9100;48.700;9.316;2022-12-10T03:45:44;96475.3;;;2.65;100
17950;BME280;9100;48.700;9.316;2022-12-10T03:46:35;96469.5;;;2.65;100
17950;BME280;9100;48.700;9.316;2022-12-10T03:47:36;96477.9;;;2.65;100
17950;BME280;9100;48.700;9.316;2022-12-10T03:48:35;96470.3;;;2.65;100
17950;BME280;9100;48.700;9.316;2022-12-10T03:49:36;96473.8;;;2.64;100
17950;BME280;9100;48.700;9.316;2022-12-10T03:50:36;96472.29999999999;;;2.62;100
17950;BME280;9100;48.700;9.316;2022-12-10T03:50:44;96476.5;;;2.63;100
17950;BME280;9100;48.700;9.316;2022-12-10T03:51:35;96481.5;;;2.63;100
17950;BME280;9100;48.700;9.316;2022-12-10T03:52:36;96478.2;;;2.62;100
17950;BME280;9100;48.700;9.316;2022-12-10T03:53:35;96485;;;2.62;100
17950;BME280;9100;48.700;9.316;2022-12-10T03:54:36;96489.70000000001;;;2.65;100
17950;BME280;9100;48.700;9.316;2022-12-10T03:55:35;96491.5;;;2.64;100
17950;BME280;9100;48.700;9.316;2022-12-10T03:55:44;96499;;;2.64;100
17950;BME280;9100;48.700;9.316;2022-12-10T03:56:35;96495.5;;;2.65;100
17950;BME280;9100;48.700;9.316;2022-12-10T03:57:35;96496.5;;;2.64;100
17950;BME280;9100;48.700;9.316;2022-12-10T03:58:36;96507.2;;;2.66;100
17950;BME280;9100;48.700;9.316;2022-12-10T03:59:35;96513;;;2.67;100
17950;BME280;9100;48.700;9.316;2022-12-10T04:00:35;96508.8;;;2.67;100
17950;BME280;9100;48.700;9.316;2022-12-10T04:00:45;96512.2;;;2.66;100
17950;BME280;9100;48.700;9.316;2022-12-10T04:01:35;96508.8;;;2.67;100
17950;BME280;9100;48.700;9.316;2022-12-10T04:02:36;96512.7;;;2.7;100
17950;BME280;9100;48.700;9.316;2022-12-10T04:03:36;96515.09999999999;;;2.71;100
17950;BME280;9100;48.700;9.316;2022-12-10T04:04:36;96513.5;;;2.7;100
17950;BME280;9100;48.700;9.316;2022-12-10T04:05:36;96517.8;;;2.7;100
17950;BME280;9100;48.700;9.316;2022-12-10T04:05:45;96518.7;;;2.69;100
17950;BME280;9100;48.700;9.316;2022-12-10T04:06:36;96512.7;;;2.7;100
17950;BME280;9100;48.700;9.316;2022-12-10T04:07:36;96516.8;;;2.71;100
17950;BME280;9100;48.700;9.316;2022-12-10T04:08:35;96520.2;;;2.71;100
17950;BME280;9100;48.700;9.316;2022-12-10T04:09:36;96515.09999999999;;;2.71;100
17950;BME280;9100;48.700;9.316;2022-12-10T04:10:36;96515.09999999999;;;2.71;100
17950;BME280;9100;48.700;9.316;2022-12-10T04:10:44;96516.7;;;2.72;100
17950;BME280;9100;48.700;9.316;2022-12-10T04:11:35;96509.1;;;2.72;100
17950;BME280;9100;48.700;9.316;2022-12-10T04:12:36;96512.3;;;2.74;100
17950;BME280;9100;48.700;9.316;2022-12-10T04:13:36;96513.8;;;2.75;100
17950;BME280;9100;48.700;9.316;2022-12-10T04:14:35;96513.8;;;2.75;100
17950;BME280;9100;48.700;9.316;2022-12-10T04:15:37;96517.9;;;2.76;100
17950;BME280;9100;48.700;9.316;2022-12-10T04:15:44;96518.9;;;2.75;100
17950;BME280;9100;48.700;9.316;2022-12-10T04:16:36;96519.5;;;2.77;100
17950;BME280;9100;48.700;9.316;2022-12-10T04:17:36;96520.1;;;2.79;100
17950;BME280;9100;48.700;9.316;2022-12-10T04:18:35;96521.7;;;2.8;100
17950;BME280;9100;48.700;9.316;2022-12-10T04:19:36;96522.40000000001;;;2.82;100
17950;BME280;9100;48.700;9.316;2022-12-10T04:20:35;96527.4;;;2.82;100
17950;BME280;9100;48.700;9.316;2022-12-10T04:20:44;96527.4;;;2.82;100
17950;BME280;9100;48.700;9.316;2022-12-10T04:21:36;96528;;;2.84;100
17950;BME280;9100;48.700;9.316;2022-12-10T04:22:35;96526.3;;;2.85;100
17950;BME280;9100;48.700;9.316;2022-12-10T04:23:35;96528.7;;;2.86;100
17950;BME280;9100;48.700;9.316;2022-12-10T04:24:36;96527.70000000001;;;2.87;100
17950;BME280;9100;48.700;9.316;2022-12-10T04:25:35;96528.7;;;2.86;100
17950;BME280;9100;48.700;9.316;2022-12-10T04:25:44;96530.2;;;2.87;100
17950;BME280;9100;48.700;9.316;2022-12-10T04:26:35;96535.90000000001;;;2.89;100
17950;BME280;9100;48.700;9.316;2022-12-10T04:27:36;96545.1;;;2.9;100
17950;BME280;9100;48.700;9.316;2022-12-10T04:28:36;96544.1;;;2.91;100
17950;BME280;9100;48.700;9.316;2022-12-10T04:29:36;96537.3;;;2.92;100
17950;BME280;9100;48.700;9.316;2022-12-10T04:30:35;96536.7;;;2.9;100
17950;BME280;9100;48.700;9.316;2022-12-10T04:30:44;96535;;;2.9;100
17950;BME280;9100;48.700;9.316;2022-12-10T04:31:35;96536.5;;;2.91;100
17950;BME280;9100;48.700;9.316;2022-12-10T04:32:36;96530.7;;;2.91;100
17950;BME280;9100;48.700;9.316;2022-12-10T04:33:36;96538.09999999999;;;2.92;100
17950;BME280;9100;48.700;9.316;2022-12-10T04:34:36;96537.3;;;2.92;100
17950;BME280;9100;48.700;9.316;2022-12-10T04:35:36;96544;;;2.93;100
17950;BME280;9100;48.700;9.316;2022-12-10T04:35:45;96544.8;;;2.93;100
17950;BME280;9100;48.700;9.316;2022-12-10T04:36:35;96546.3;;;2.94;100
17950;BME280;9100;48.700;9.316;2022-12-10T04:37:35;96548.7;;;2.96;100
17950;BME280;9100;48.700;9.316;2022-12-10T04:38:35;96543.5;;;2.98;100